createdAt,value
2022-11-04T00:00:22.907Z,8.40
2022-11-04T00:02:59.419Z,8.00
2022-11-04T00:05:27.588Z,9.70
2022-11-04T00:08:14.304Z,9.40
2022-11-04T00:11:01.312Z,8.60
2022-11-04T00:13:30.345Z,10.30
2022-11-04T00:16:20.494Z,10.00
2022-11-04T00:18:48.669Z,9.40
2022-11-04T00:21:35.888Z,9.00
2022-11-04T00:24:23.886Z,10.20
2022-11-04T00:27:10.939Z,9.30
2022-11-04T00:29:40.049Z,10.80
2022-11-04T00:32:27.466Z,10.40
2022-11-04T00:34:55.745Z,11.20
2022-11-04T00:37:26.371Z,9.20
2022-11-04T00:39:54.357Z,9.00
2022-11-04T00:42:23.226Z,7.90
2022-11-04T00:44:51.408Z,9.70
2022-11-04T00:47:19.433Z,9.00
2022-11-04T00:49:47.450Z,9.80
2022-11-04T00:52:15.629Z,9.80
2022-11-04T00:54:44.199Z,9.70
2022-11-04T00:57:13.934Z,9.00
2022-11-04T00:59:42.909Z,9.30
2022-11-04T01:02:12.106Z,8.90
2022-11-04T01:04:40.282Z,8.20
2022-11-04T01:07:08.552Z,8.80
2022-11-04T01:09:36.842Z,9.40
2022-11-04T01:12:05.183Z,9.30
2022-11-04T01:14:33.349Z,7.60
2022-11-04T01:17:01.563Z,9.20
2022-11-04T01:19:29.670Z,7.30
2022-11-04T01:21:57.943Z,9.90
2022-11-04T01:24:26.335Z,8.40
2022-11-04T01:26:54.345Z,7.20
2022-11-04T01:29:22.455Z,8.60
2022-11-04T01:31:50.520Z,9.30
2022-11-04T01:34:18.759Z,9.50
2022-11-04T01:36:46.957Z,9.40
2022-11-04T01:39:16.912Z,9.40
2022-11-04T01:41:45.240Z,7.80
2022-11-04T01:44:41.763Z,9.00
2022-11-04T01:47:25.183Z,9.90
2022-11-04T01:50:22.011Z,8.20
2022-11-04T01:52:56.456Z,9.20
2022-11-04T01:55:28.782Z,8.80
2022-11-04T01:58:03.034Z,8.90
2022-11-04T02:00:31.452Z,9.00
2022-11-04T02:03:13.451Z,6.90
2022-11-04T02:05:42.918Z,8.10
2022-11-04T02:08:12.528Z,8.70
2022-11-04T02:10:46.740Z,8.00
2022-11-04T02:13:14.938Z,8.10
2022-11-04T02:16:08.077Z,8.40
2022-11-04T02:19:02.677Z,8.00
2022-11-04T02:22:06.881Z,6.50
2022-11-04T02:24:53.415Z,8.20
2022-11-04T02:27:36.447Z,8.40
2022-11-04T02:30:04.601Z,8.90
2022-11-04T02:33:18.239Z,7.20
2022-11-04T02:36:01.609Z,6.70
2022-11-04T02:38:51.111Z,9.10
2022-11-04T02:41:37.768Z,10.10
2022-11-04T02:44:28.215Z,9.40
2022-11-04T02:47:17.667Z,9.50
2022-11-04T02:50:14.731Z,8.10
2022-11-04T02:52:51.367Z,10.00
2022-11-04T02:55:32.845Z,8.00
2022-11-04T02:58:06.193Z,8.80
2022-11-04T03:00:37.227Z,9.00
2022-11-04T03:03:11.562Z,7.70
2022-11-04T03:05:43.779Z,9.10
2022-11-04T03:08:38.733Z,9.40
2022-11-04T03:11:12.488Z,8.50
2022-11-04T03:14:00.137Z,8.80
2022-11-04T03:16:41.260Z,9.50
2022-11-04T03:19:40.622Z,10.50
2022-11-04T03:22:08.666Z,10.40
2022-11-04T03:24:37.926Z,7.90
2022-11-04T03:27:38.626Z,10.90
2022-11-04T03:30:12.493Z,9.00
2022-11-04T03:32:59.977Z,9.80
2022-11-04T03:35:29.149Z,10.20
2022-11-04T03:37:58.258Z,9.80
2022-11-04T03:40:27.043Z,7.80
2022-11-04T03:43:00.853Z,9.20
2022-11-04T03:45:29.570Z,10.10
2022-11-04T03:47:58.327Z,8.60
2022-11-04T03:50:31.826Z,11.00
2022-11-04T03:53:00.537Z,10.20
2022-11-04T03:55:43.636Z,9.80
2022-11-04T03:58:28.452Z,9.60
2022-11-04T04:01:11.858Z,10.60
2022-11-04T04:03:50.555Z,10.50
2022-11-04T04:06:24.708Z,9.60
2022-11-04T04:09:11.424Z,9.30
2022-11-04T04:11:46.404Z,9.80
2022-11-04T04:14:40.035Z,9.30
2022-11-04T04:17:24.140Z,11.00
2022-11-04T04:20:04.391Z,11.30
2022-11-04T04:22:54.581Z,10.20
2022-11-04T04:25:47.016Z,10.00
2022-11-04T04:28:18.611Z,10.00
2022-11-04T04:30:47.893Z,10.60
2022-11-04T04:33:18.648Z,9.70
2022-11-04T04:35:55.147Z,11.00
2022-11-04T04:38:43.102Z,10.60
2022-11-04T04:41:41.101Z,10.70
2022-11-04T04:44:37.513Z,10.10
2022-11-04T04:47:07.981Z,10.10
2022-11-04T04:49:36.219Z,10.30
2022-11-04T04:52:07.358Z,10.10
2022-11-04T04:54:35.636Z,10.10
2022-11-04T04:57:03.927Z,10.40
2022-11-04T04:59:32.138Z,10.90
2022-11-04T05:02:00.472Z,10.90
2022-11-04T05:04:28.754Z,10.90
2022-11-04T05:06:56.996Z,11.30
2022-11-04T05:09:25.070Z,11.60
2022-11-04T05:11:53.143Z,11.90
2022-11-04T05:14:21.398Z,10.50
2022-11-04T05:16:49.473Z,10.50
2022-11-04T05:19:17.901Z,10.10
2022-11-04T05:21:46.137Z,10.80
2022-11-04T05:24:15.831Z,10.90
2022-11-04T05:26:44.756Z,9.60
2022-11-04T05:31:44.235Z,9.20
2022-11-04T05:34:14.140Z,10.50
2022-11-04T05:36:42.753Z,10.60
2022-11-04T05:39:13.965Z,8.80
2022-11-04T05:41:42.706Z,10.30
2022-11-04T05:44:11.405Z,10.50
2022-11-04T05:46:40.861Z,10.90
2022-11-04T05:49:12.055Z,10.70
2022-11-04T05:51:40.821Z,10.90
2022-11-04T05:54:09.640Z,10.80
2022-11-04T05:56:38.001Z,10.50
2022-11-04T05:59:06.175Z,10.20
2022-11-04T06:01:39.817Z,10.80
2022-11-04T06:04:15.856Z,9.90
2022-11-04T06:06:45.051Z,10.10
2022-11-04T06:09:13.530Z,10.70
2022-11-04T06:11:41.890Z,10.70
2022-11-04T06:14:12.563Z,10.80
2022-11-04T06:16:44.584Z,10.20
2022-11-04T06:19:15.923Z,10.50
2022-11-04T06:21:45.663Z,10.40
2022-11-04T06:24:14.234Z,11.00
2022-11-04T06:26:42.604Z,10.00
2022-11-04T06:29:10.991Z,9.70
2022-11-04T06:31:39.264Z,10.60
2022-11-04T06:34:08.951Z,10.00
2022-11-04T06:36:38.199Z,10.20
2022-11-04T06:39:06.558Z,10.80
2022-11-04T06:41:34.938Z,10.80
2022-11-04T06:44:03.620Z,10.50
2022-11-04T06:46:38.396Z,10.60
2022-11-04T06:49:11.679Z,10.50
2022-11-04T06:51:40.278Z,11.10
2022-11-04T06:54:08.967Z,10.50
2022-11-04T06:56:37.537Z,10.20
2022-11-04T06:59:06.548Z,10.20
2022-11-04T07:01:36.971Z,10.00
2022-11-04T07:04:05.614Z,10.40
2022-11-04T07:06:35.423Z,11.10
2022-11-04T07:09:05.878Z,11.20
2022-11-04T07:11:34.368Z,11.70
2022-11-04T07:14:02.939Z,11.70
2022-11-04T07:16:31.297Z,11.20
2022-11-04T07:18:59.818Z,10.10
2022-11-04T07:21:29.111Z,11.50
2022-11-04T07:23:57.895Z,10.90
2022-11-04T07:26:26.375Z,10.20
2022-11-04T07:28:54.968Z,10.40
2022-11-04T07:31:25.401Z,11.70
2022-11-04T07:33:54.657Z,10.40
2022-11-04T07:36:23.260Z,11.30
2022-11-04T07:38:52.282Z,11.60
2022-11-04T07:41:21.863Z,10.40
2022-11-04T07:43:51.898Z,10.10
2022-11-04T07:46:21.030Z,9.90
2022-11-04T07:48:49.459Z,12.30
2022-11-04T07:51:20.609Z,10.40
2022-11-04T07:53:50.940Z,10.90
2022-11-04T07:56:19.627Z,10.80
2022-11-04T07:58:48.516Z,11.10
2022-11-04T08:01:20.523Z,9.90
2022-11-04T08:03:52.695Z,10.50
2022-11-04T08:06:22.212Z,10.40
2022-11-04T08:08:54.288Z,10.00
2022-11-04T08:11:25.471Z,9.90
2022-11-04T08:13:57.121Z,10.70
2022-11-04T08:16:29.952Z,10.60
2022-11-04T08:19:02.836Z,10.20
2022-11-04T08:21:33.699Z,12.20
2022-11-04T08:24:06.213Z,11.30
2022-11-04T08:26:34.852Z,9.10
2022-11-04T08:29:08.310Z,12.30
2022-11-04T08:31:37.623Z,10.60
2022-11-04T08:34:08.507Z,10.20
2022-11-04T08:36:41.012Z,11.30
2022-11-04T08:39:11.357Z,11.60
2022-11-04T08:41:43.261Z,9.80
2022-11-04T08:44:14.955Z,11.00
2022-11-04T08:46:45.436Z,10.70
2022-11-04T08:49:19.601Z,10.00
2022-11-04T08:51:56.804Z,9.90
2022-11-04T08:54:26.944Z,10.20
2022-11-04T08:56:55.634Z,10.10
2022-11-04T08:59:25.451Z,10.00
2022-11-04T09:01:54.325Z,9.50
2022-11-04T09:04:24.883Z,9.70
2022-11-04T09:06:57.193Z,10.50
2022-11-04T09:09:26.998Z,10.60
2022-11-04T09:11:57.165Z,9.50
2022-11-04T09:14:26.873Z,10.10
2022-11-04T09:16:56.945Z,10.50
2022-11-04T09:19:26.821Z,11.60
2022-11-04T09:21:56.167Z,10.00
2022-11-04T09:24:25.580Z,10.60
2022-11-04T09:26:55.025Z,10.40
2022-11-04T09:29:23.798Z,9.10
2022-11-04T09:31:53.429Z,10.40
2022-11-04T09:34:22.995Z,9.10
2022-11-04T09:36:56.869Z,9.40
2022-11-04T09:39:26.889Z,9.90
2022-11-04T09:41:59.260Z,9.00
2022-11-04T09:47:56.359Z,9.20
2022-11-04T09:50:30.268Z,7.90
2022-11-04T09:53:07.348Z,9.80
2022-11-04T09:55:47.389Z,9.60
2022-11-04T09:58:15.792Z,10.90
2022-11-04T10:01:08.145Z,10.20
2022-11-04T10:04:22.252Z,10.30
2022-11-04T10:07:05.910Z,10.40
2022-11-04T10:10:02.350Z,10.50
2022-11-04T10:13:03.969Z,9.60
2022-11-04T10:15:41.541Z,10.40
2022-11-04T10:18:25.409Z,9.10
2022-11-04T10:21:19.185Z,10.00
2022-11-04T10:24:15.771Z,8.00
2022-11-04T10:27:00.366Z,9.30
2022-11-04T10:29:44.537Z,9.90
2022-11-04T10:32:28.385Z,10.00
2022-11-04T10:35:02.597Z,9.30
2022-11-04T10:37:31.688Z,9.20
2022-11-04T10:40:18.435Z,10.00
2022-11-04T10:42:47.649Z,9.90
2022-11-04T10:45:16.397Z,6.90
2022-11-04T10:47:55.425Z,9.70
2022-11-04T10:50:42.756Z,9.40
2022-11-04T10:53:13.695Z,9.20
2022-11-04T10:55:45.033Z,7.80
2022-11-04T10:58:22.220Z,9.00
2022-11-04T11:00:52.002Z,9.00
2022-11-04T11:03:35.171Z,8.40
2022-11-04T11:06:11.639Z,9.00
2022-11-04T11:09:12.968Z,9.40
2022-11-04T11:11:50.600Z,9.00
2022-11-04T11:15:14.503Z,9.40
2022-11-04T11:17:45.069Z,10.60
2022-11-04T11:20:59.955Z,9.90
2022-11-04T11:23:43.784Z,10.50
2022-11-04T11:26:57.360Z,8.70
2022-11-04T11:30:09.064Z,9.30
2022-11-04T11:32:43.482Z,10.20
2022-11-04T11:35:55.279Z,10.60
2022-11-04T11:38:29.388Z,10.10
2022-11-04T11:41:47.959Z,10.40
2022-11-04T11:44:33.211Z,10.40
2022-11-04T11:47:55.148Z,10.40
2022-11-04T11:50:34.623Z,6.60
2022-11-04T11:53:58.484Z,10.30
2022-11-04T11:57:07.405Z,9.30
2022-11-04T12:03:31.154Z,10.80
2022-11-04T12:09:41.799Z,9.90
2022-11-04T12:12:19.281Z,9.80
2022-11-04T12:14:50.319Z,9.70
2022-11-04T12:17:32.500Z,9.10
2022-11-04T12:20:17.323Z,9.30
2022-11-04T12:23:38.403Z,9.50
2022-11-04T12:26:31.573Z,9.40
2022-11-04T12:29:50.225Z,9.10
2022-11-04T12:32:27.810Z,8.50
2022-11-04T12:35:23.953Z,10.70
2022-11-04T12:38:15.782Z,10.00
2022-11-04T12:41:34.324Z,9.70
2022-11-04T12:44:17.728Z,10.00
2022-11-04T12:46:59.867Z,9.60
2022-11-04T12:49:31.111Z,10.10
2022-11-04T12:52:09.628Z,9.90
2022-11-04T12:55:05.765Z,9.50
2022-11-04T12:57:56.881Z,9.10
2022-11-04T13:00:28.414Z,9.70
2022-11-04T13:03:15.225Z,10.80
2022-11-04T13:05:53.345Z,9.20
2022-11-04T13:08:34.822Z,9.00
2022-11-04T13:11:24.903Z,9.80
2022-11-04T13:14:19.460Z,10.20
2022-11-04T13:16:54.686Z,9.80
2022-11-04T13:19:31.821Z,10.20
2022-11-04T13:22:09.724Z,10.50
2022-11-04T13:24:40.605Z,10.60
2022-11-04T13:27:35.879Z,11.30
2022-11-04T13:30:08.709Z,10.90
2022-11-04T13:33:09.805Z,10.30
2022-11-04T13:35:44.331Z,10.30
2022-11-04T13:38:18.752Z,9.80
2022-11-04T13:40:59.527Z,10.10
2022-11-04T13:43:39.479Z,10.20
2022-11-04T13:46:11.032Z,9.50
2022-11-04T13:49:00.097Z,10.20
2022-11-04T13:52:07.271Z,9.80
2022-11-04T13:54:42.071Z,10.40
2022-11-04T13:57:20.046Z,10.80
2022-11-04T14:00:13.457Z,9.60
2022-11-04T14:03:21.790Z,10.40
2022-11-04T14:05:59.127Z,10.70
2022-11-04T14:08:27.770Z,10.70
2022-11-04T14:10:56.444Z,10.90
2022-11-04T14:13:27.907Z,10.30
2022-11-04T14:16:02.320Z,10.70
2022-11-04T14:18:32.232Z,10.30
2022-11-04T14:21:13.921Z,11.20
2022-11-04T14:23:45.682Z,11.30
2022-11-04T14:26:16.934Z,10.70
2022-11-04T14:29:01.083Z,12.30
2022-11-04T14:31:41.649Z,12.30
2022-11-04T14:34:26.829Z,16.10
2022-11-04T14:36:58.484Z,18.60
2022-11-04T14:39:40.260Z,21.30
2022-11-04T14:42:14.069Z,17.90
2022-11-04T14:44:49.610Z,14.30
2022-11-04T14:47:23.130Z,11.70
2022-11-04T14:50:05.766Z,11.00
2022-11-04T14:52:39.241Z,10.30
2022-11-04T14:55:24.815Z,11.30
2022-11-04T14:57:56.214Z,12.00
2022-11-04T15:00:33.547Z,11.20
2022-11-04T15:04:08.726Z,11.40
2022-11-04T15:06:11.689Z,11.20
2022-11-04T15:08:43.166Z,12.00
2022-11-04T15:11:16.974Z,11.20
2022-11-04T15:13:57.191Z,12.10
2022-11-04T15:16:30.144Z,11.50
2022-11-04T15:18:59.691Z,11.20
2022-11-04T15:21:28.378Z,11.20
2022-11-04T15:23:57.462Z,11.60
2022-11-04T15:26:30.413Z,10.70
2022-11-04T15:29:02.416Z,12.70
2022-11-04T15:31:33.075Z,13.60
2022-11-04T15:34:03.693Z,13.60
2022-11-04T15:36:36.254Z,13.80
2022-11-04T15:39:13.677Z,13.80
2022-11-04T15:42:02.820Z,14.00
2022-11-04T15:44:34.468Z,13.40
2022-11-04T15:47:20.366Z,15.60
2022-11-04T15:49:50.986Z,16.40
2022-11-04T15:52:25.415Z,15.90
2022-11-04T15:54:56.137Z,17.00
2022-11-04T15:57:32.498Z,16.30
2022-11-04T16:00:04.269Z,15.70
2022-11-04T16:02:54.386Z,14.90
2022-11-04T16:05:27.768Z,17.80
2022-11-04T16:08:14.362Z,16.80
2022-11-04T16:10:43.092Z,16.90
2022-11-04T16:13:15.312Z,17.80
2022-11-04T16:16:09.484Z,15.90
2022-11-04T16:18:37.783Z,15.90
2022-11-04T16:21:12.789Z,16.80
2022-11-04T16:23:48.752Z,18.20
2022-11-04T16:26:23.395Z,18.20
2022-11-04T16:28:57.552Z,17.60
2022-11-04T16:31:33.563Z,17.20
2022-11-04T16:34:03.909Z,16.20
2022-11-04T16:36:35.852Z,16.30
2022-11-04T16:39:09.397Z,16.10
2022-11-04T16:41:40.520Z,16.20
2022-11-04T16:44:20.657Z,17.10
2022-11-04T16:46:49.957Z,16.50
2022-11-04T16:49:22.334Z,16.70
2022-11-04T16:51:56.202Z,14.90
2022-11-04T16:54:25.974Z,15.10
2022-11-04T16:56:56.651Z,15.70
2022-11-04T16:59:27.023Z,17.50
2022-11-04T17:01:56.930Z,17.00
2022-11-04T17:04:26.496Z,17.30
2022-11-04T17:06:55.927Z,17.40
2022-11-04T17:09:25.504Z,16.50
2022-11-04T17:11:55.172Z,16.40
2022-11-04T17:14:24.897Z,17.00
2022-11-04T17:16:57.702Z,21.40
2022-11-04T17:19:34.277Z,21.00
2022-11-04T17:22:08.823Z,22.20
2022-11-04T17:24:39.371Z,26.40
2022-11-04T17:27:10.315Z,27.10
2022-11-04T17:29:40.464Z,25.80
2022-11-04T17:32:10.944Z,22.30
2022-11-04T17:34:41.313Z,19.30
2022-11-04T17:37:13.684Z,19.20
2022-11-04T17:39:42.849Z,22.40
2022-11-04T17:42:33.662Z,21.80
2022-11-04T17:45:04.975Z,21.10
2022-11-04T17:47:37.704Z,20.80
2022-11-04T17:50:08.203Z,19.80
2022-11-04T17:52:39.770Z,19.30
2022-11-04T17:55:15.385Z,18.50
2022-11-04T17:57:45.826Z,19.10
2022-11-04T18:00:15.001Z,21.00
2022-11-04T18:02:43.702Z,20.00
2022-11-04T18:05:12.673Z,16.70
2022-11-04T18:07:42.760Z,15.70
2022-11-04T18:10:11.875Z,14.10
2022-11-04T18:12:41.861Z,16.40
2022-11-04T18:15:12.980Z,16.80
2022-11-04T18:17:43.742Z,15.30
2022-11-04T18:20:15.668Z,19.60
2022-11-04T18:22:45.516Z,19.40
2022-11-04T18:25:14.230Z,14.70
2022-11-04T18:27:42.998Z,19.10
2022-11-04T18:30:12.936Z,18.70
2022-11-04T18:32:42.407Z,15.30
2022-11-04T18:35:11.961Z,17.00
2022-11-04T18:37:45.883Z,18.10
2022-11-04T18:40:18.410Z,18.80
2022-11-04T18:42:48.619Z,19.40
2022-11-04T18:45:20.429Z,18.80
2022-11-04T18:47:50.850Z,19.40
2022-11-04T18:50:20.845Z,20.70
2022-11-04T18:52:55.602Z,19.80
2022-11-04T18:55:26.675Z,20.10
2022-11-04T18:57:56.441Z,20.70
2022-11-04T19:00:26.666Z,20.00
2022-11-04T19:02:56.876Z,22.30
2022-11-04T19:05:26.788Z,20.00
2022-11-04T19:07:56.263Z,14.10
2022-11-04T19:10:26.505Z,14.70
2022-11-04T19:13:14.976Z,14.20
2022-11-04T19:15:45.454Z,15.60
2022-11-04T19:18:18.783Z,13.10
2022-11-04T19:20:49.076Z,17.50
2022-11-04T19:23:18.746Z,13.60
2022-11-04T19:25:48.390Z,15.60
2022-11-04T19:28:37.305Z,13.40
2022-11-04T19:31:10.236Z,15.30
2022-11-04T19:33:40.053Z,14.90
2022-11-04T19:36:12.697Z,18.20
2022-11-04T19:38:44.533Z,12.60
2022-11-04T19:41:37.183Z,13.00
2022-11-04T19:44:10.110Z,15.00
2022-11-04T19:46:40.027Z,16.10
2022-11-04T19:49:10.672Z,17.70
2022-11-04T19:51:40.509Z,18.10
2022-11-04T19:54:10.942Z,13.60
2022-11-04T19:56:40.162Z,10.70
2022-11-04T19:59:09.686Z,11.50
2022-11-04T20:01:39.626Z,16.30
2022-11-04T20:04:10.147Z,9.90
2022-11-04T20:06:39.754Z,9.20
2022-11-04T20:09:11.419Z,14.80
2022-11-04T20:11:59.553Z,12.20
2022-11-04T20:14:29.477Z,13.70
2022-11-04T20:16:58.377Z,15.30
2022-11-04T20:20:19.810Z,15.40
2022-11-04T20:23:39.752Z,14.80
2022-11-04T20:26:17.601Z,15.20
2022-11-04T20:28:49.053Z,13.70
2022-11-04T20:31:24.286Z,7.70
2022-11-04T20:33:54.496Z,6.50
2022-11-04T20:36:26.778Z,8.70
2022-11-04T20:38:57.630Z,12.80
2022-11-04T20:41:28.482Z,10.10
2022-11-04T20:43:58.687Z,12.80
2022-11-04T20:46:30.550Z,9.50
2022-11-04T20:48:59.152Z,11.50
2022-11-04T20:51:31.845Z,12.00
2022-11-04T20:54:04.197Z,14.70
2022-11-04T20:56:37.782Z,10.90
2022-11-04T20:59:07.303Z,12.30
2022-11-04T21:01:38.842Z,8.10
2022-11-04T21:04:15.544Z,12.20
2022-11-04T21:06:46.156Z,13.70
2022-11-04T21:09:17.210Z,10.20
2022-11-04T21:11:46.721Z,11.90
2022-11-04T21:14:16.964Z,13.00
2022-11-04T21:16:46.267Z,11.20
2022-11-04T21:19:16.848Z,10.40
2022-11-04T21:21:47.085Z,13.90
2022-11-04T21:24:17.214Z,13.30
2022-11-04T21:26:46.640Z,13.60
2022-11-04T21:29:17.787Z,14.80
2022-11-04T21:31:47.720Z,15.10
2022-11-04T21:34:17.835Z,15.60
2022-11-04T21:36:50.619Z,13.80
2022-11-04T21:39:19.934Z,14.00
2022-11-04T21:41:49.220Z,12.30
2022-11-04T21:44:18.532Z,14.00
2022-11-04T21:46:50.095Z,9.60
2022-11-04T21:49:18.903Z,14.80
2022-11-04T21:51:48.308Z,12.30
2022-11-04T21:54:17.624Z,9.80
2022-11-04T21:56:46.772Z,11.50
2022-11-04T21:59:18.383Z,13.60
2022-11-04T22:01:47.375Z,14.50
2022-11-04T22:04:16.416Z,10.70
2022-11-04T22:06:45.840Z,10.40
2022-11-04T22:09:14.455Z,11.00
2022-11-04T22:11:43.311Z,11.90
2022-11-04T22:14:12.830Z,10.40
2022-11-04T22:16:41.249Z,11.00
2022-11-04T22:19:14.124Z,9.10
2022-11-04T22:21:45.344Z,8.30
2022-11-04T22:24:16.394Z,8.10
2022-11-04T22:26:44.866Z,9.10
2022-11-04T22:29:13.360Z,11.90
2022-11-04T22:31:43.178Z,9.40
2022-11-04T22:34:11.552Z,10.20
2022-11-04T22:36:40.039Z,6.80
2022-11-04T22:39:16.092Z,10.20
2022-11-04T22:41:46.647Z,11.10
2022-11-04T22:44:15.531Z,8.70
2022-11-04T22:46:43.905Z,9.90
2022-11-04T22:49:14.770Z,10.60
2022-11-04T22:51:43.431Z,9.50
2022-11-04T22:54:11.916Z,8.70
2022-11-04T22:56:41.227Z,5.30
2022-11-04T22:59:11.174Z,7.00
2022-11-04T23:01:40.248Z,7.20
2022-11-04T23:04:12.186Z,8.00
2022-11-04T23:06:41.200Z,9.20
2022-11-04T23:09:12.544Z,9.60
2022-11-04T23:11:59.367Z,6.20
2022-11-04T23:14:43.242Z,6.00
2022-11-04T23:17:35.652Z,6.10
2022-11-04T23:20:07.602Z,6.90
2022-11-04T23:22:55.462Z,5.70
2022-11-04T23:25:25.069Z,6.80
2022-11-04T23:28:14.030Z,5.00
2022-11-04T23:30:45.940Z,6.30
2022-11-04T23:33:15.509Z,6.10
2022-11-04T23:36:07.546Z,6.10
2022-11-04T23:38:36.238Z,5.50
2022-11-04T23:41:25.826Z,6.50
2022-11-04T23:43:54.199Z,5.20
2022-11-04T23:46:43.370Z,5.50
2022-11-04T23:49:31.092Z,6.80
2022-11-04T23:52:18.040Z,5.80
2022-11-04T23:55:05.347Z,5.70
2022-11-04T23:57:52.057Z,5.90
